createdAt,value
2022-12-24T00:01:03.963Z,20.72
2022-12-24T00:03:30.623Z,20.71
2022-12-24T00:05:57.445Z,20.70
2022-12-24T00:08:24.076Z,20.68
2022-12-24T00:10:52.516Z,20.64
2022-12-24T00:13:19.601Z,20.62
2022-12-24T00:15:46.162Z,20.59
2022-12-24T00:18:12.755Z,20.57
2022-12-24T00:20:39.368Z,20.53
2022-12-24T00:23:06.165Z,20.54
2022-12-24T00:25:32.698Z,20.51
2022-12-24T00:27:59.158Z,20.47
2022-12-24T00:30:25.678Z,20.47
2022-12-24T00:32:52.140Z,20.45
2022-12-24T00:35:18.623Z,20.42
2022-12-24T00:37:48.399Z,20.42
2022-12-24T00:40:15.704Z,20.40
2022-12-24T00:42:42.352Z,20.38
2022-12-24T00:45:10.394Z,20.38
2022-12-24T00:47:37.225Z,20.37
2022-12-24T00:50:05.086Z,20.36
2022-12-24T00:52:31.510Z,20.33
2022-12-24T00:54:58.009Z,20.31
2022-12-24T00:57:24.541Z,20.29
2022-12-24T00:59:51.017Z,20.28
2022-12-24T01:02:17.799Z,20.26
2022-12-24T01:05:02.778Z,20.25
2022-12-24T01:07:29.324Z,20.23
2022-12-24T01:09:55.763Z,20.21
2022-12-24T01:12:22.275Z,20.19
2022-12-24T01:14:48.819Z,20.18
2022-12-24T01:17:15.307Z,20.16
2022-12-24T01:19:41.780Z,20.17
2022-12-24T01:22:08.711Z,20.14
2022-12-24T01:24:35.351Z,20.11
2022-12-24T01:27:01.786Z,20.10
2022-12-24T01:29:28.392Z,20.09
2022-12-24T01:31:54.891Z,20.07
2022-12-24T01:34:21.430Z,20.06
2022-12-24T01:36:47.964Z,20.04
2022-12-24T01:39:14.539Z,20.03
2022-12-24T01:41:59.394Z,20.02
2022-12-24T01:44:36.541Z,20.00
2022-12-24T01:47:17.814Z,19.99
2022-12-24T01:49:52.399Z,19.97
2022-12-24T01:52:22.828Z,19.97
2022-12-24T01:55:00.993Z,19.97
2022-12-24T01:57:39.946Z,19.95
2022-12-24T02:00:12.897Z,19.93
2022-12-24T02:02:40.342Z,19.91
2022-12-24T02:05:09.782Z,19.89
2022-12-24T02:07:36.899Z,19.90
2022-12-24T02:10:03.910Z,19.88
2022-12-24T02:12:35.063Z,19.86
2022-12-24T02:15:02.065Z,19.85
2022-12-24T02:17:34.493Z,19.85
2022-12-24T02:20:19.651Z,19.83
2022-12-24T02:23:10.326Z,19.81
2022-12-24T02:26:14.155Z,19.79
2022-12-24T02:29:17.969Z,19.78
2022-12-24T02:32:17.598Z,19.77
2022-12-24T02:35:08.714Z,19.74
2022-12-24T02:37:40.246Z,19.74
2022-12-24T02:40:16.642Z,19.73
2022-12-24T02:42:50.234Z,19.72
2022-12-24T02:45:22.195Z,19.72
2022-12-24T02:47:49.936Z,19.70
2022-12-24T02:50:17.289Z,19.70
2022-12-24T02:52:45.919Z,19.69
2022-12-24T02:55:17.715Z,19.65
2022-12-24T02:58:05.142Z,19.65
2022-12-24T03:00:43.871Z,19.65
2022-12-24T03:03:32.003Z,19.62
2022-12-24T03:06:16.022Z,19.63
2022-12-24T03:08:55.400Z,19.60
2022-12-24T03:11:21.927Z,19.60
2022-12-24T03:13:49.225Z,19.59
2022-12-24T03:16:21.200Z,19.59
2022-12-24T03:18:50.728Z,19.58
2022-12-24T03:21:25.906Z,19.59
2022-12-24T03:23:52.409Z,19.57
2022-12-24T03:26:20.275Z,19.56
2022-12-24T03:28:47.675Z,19.55
2022-12-24T03:31:15.403Z,19.54
2022-12-24T03:33:42.185Z,19.53
2022-12-24T03:36:09.450Z,19.53
2022-12-24T03:38:36.143Z,19.52
2022-12-24T03:41:03.175Z,19.51
2022-12-24T03:43:30.021Z,19.50
2022-12-24T03:45:56.543Z,19.50
2022-12-24T03:48:26.105Z,19.51
2022-12-24T03:50:58.645Z,19.50
2022-12-24T03:53:25.092Z,19.48
2022-12-24T03:55:51.518Z,19.46
2022-12-24T03:58:18.035Z,19.46
2022-12-24T04:00:44.529Z,19.46
2022-12-24T04:03:11.155Z,19.45
2022-12-24T04:05:37.722Z,19.43
2022-12-24T04:08:04.203Z,19.43
2022-12-24T04:10:30.665Z,19.42
2022-12-24T04:12:57.128Z,19.40
2022-12-24T04:15:23.652Z,19.39
2022-12-24T04:17:50.115Z,19.37
2022-12-24T04:20:16.574Z,19.37
2022-12-24T04:22:43.125Z,19.35
2022-12-24T04:25:10.131Z,19.36
2022-12-24T04:27:36.624Z,19.33
2022-12-24T04:30:03.346Z,19.34
2022-12-24T04:32:29.813Z,19.33
2022-12-24T04:34:56.254Z,19.33
2022-12-24T04:37:22.824Z,19.31
2022-12-24T04:39:49.275Z,19.30
2022-12-24T04:42:15.771Z,19.29
2022-12-24T04:44:42.242Z,19.30
2022-12-24T04:47:08.677Z,19.28
2022-12-24T04:49:35.120Z,19.28
2022-12-24T04:52:01.623Z,19.27
2022-12-24T04:54:28.207Z,19.25
2022-12-24T04:56:54.664Z,19.25
2022-12-24T04:59:21.148Z,19.24
2022-12-24T05:01:47.733Z,19.25
2022-12-24T05:04:14.365Z,19.25
2022-12-24T05:06:40.858Z,19.23
2022-12-24T05:09:07.346Z,19.18
2022-12-24T05:11:33.784Z,19.19
2022-12-24T05:14:00.285Z,19.20
2022-12-24T05:16:26.796Z,19.18
2022-12-24T05:18:53.323Z,19.18
2022-12-24T05:21:23.074Z,19.17
2022-12-24T05:24:08.539Z,19.16
2022-12-24T05:26:50.458Z,19.14
2022-12-24T05:29:17.629Z,19.13
2022-12-24T05:31:45.232Z,19.13
2022-12-24T05:34:13.053Z,19.13
2022-12-24T05:36:40.114Z,19.11
2022-12-24T05:39:13.398Z,19.09
2022-12-24T05:41:40.285Z,19.10
2022-12-24T05:44:06.734Z,19.09
2022-12-24T05:46:33.240Z,19.11
2022-12-24T05:48:59.708Z,19.09
2022-12-24T05:51:26.203Z,19.12
2022-12-24T05:53:52.777Z,19.18
2022-12-24T05:56:22.551Z,19.24
2022-12-24T05:58:49.607Z,19.36
2022-12-24T06:01:16.918Z,19.45
2022-12-24T06:03:43.669Z,19.56
2022-12-24T06:06:15.340Z,19.69
2022-12-24T06:08:42.514Z,19.80
2022-12-24T06:11:12.821Z,19.89
2022-12-24T06:13:40.611Z,20.01
2022-12-24T06:16:08.976Z,20.11
2022-12-24T06:18:36.954Z,20.20
2022-12-24T06:21:04.844Z,20.30
2022-12-24T06:23:33.603Z,20.40
2022-12-24T06:26:01.391Z,20.51
2022-12-24T06:28:32.593Z,20.59
2022-12-24T06:31:03.239Z,20.66
2022-12-24T06:33:31.553Z,20.74
2022-12-24T06:35:58.362Z,20.81
2022-12-24T06:38:25.047Z,20.88
2022-12-24T06:40:52.159Z,20.95
2022-12-24T06:43:18.759Z,21.02
2022-12-24T06:45:46.809Z,21.08
2022-12-24T06:48:13.675Z,21.13
2022-12-24T06:50:40.534Z,21.17
2022-12-24T06:53:07.419Z,21.22
2022-12-24T06:55:33.965Z,21.27
2022-12-24T06:58:00.447Z,21.32
2022-12-24T07:00:27.028Z,21.34
2022-12-24T07:02:53.677Z,21.38
2022-12-24T07:05:20.174Z,21.41
2022-12-24T07:07:46.810Z,21.43
2022-12-24T07:10:15.458Z,21.45
2022-12-24T07:12:42.126Z,21.47
2022-12-24T07:15:10.096Z,21.50
2022-12-24T07:17:36.786Z,21.50
2022-12-24T07:20:04.590Z,21.52
2022-12-24T07:22:31.193Z,21.55
2022-12-24T07:24:57.686Z,21.54
2022-12-24T07:27:24.197Z,21.56
2022-12-24T07:29:50.684Z,21.57
2022-12-24T07:32:17.190Z,21.59
2022-12-24T07:34:43.657Z,21.60
2022-12-24T07:37:10.106Z,21.61
2022-12-24T07:39:36.528Z,21.62
2022-12-24T07:42:05.667Z,21.63
2022-12-24T07:44:32.158Z,21.62
2022-12-24T07:46:58.674Z,21.64
2022-12-24T07:49:25.230Z,21.65
2022-12-24T07:51:51.751Z,21.67
2022-12-24T07:54:18.420Z,21.66
2022-12-24T07:56:44.889Z,21.69
2022-12-24T07:59:13.325Z,21.70
2022-12-24T08:01:40.378Z,21.71
2022-12-24T08:04:07.071Z,21.71
2022-12-24T08:06:33.632Z,21.72
2022-12-24T08:09:00.201Z,21.73
2022-12-24T08:11:26.776Z,21.74
2022-12-24T08:13:53.270Z,21.75
2022-12-24T08:16:19.738Z,21.76
2022-12-24T08:18:46.195Z,21.78
2022-12-24T08:21:12.645Z,21.77
2022-12-24T08:23:39.130Z,21.79
2022-12-24T08:26:10.317Z,21.80
2022-12-24T08:28:37.180Z,21.80
2022-12-24T08:31:03.958Z,21.81
2022-12-24T08:33:30.602Z,21.83
2022-12-24T08:35:57.144Z,21.85
2022-12-24T08:38:24.032Z,21.85
2022-12-24T08:40:53.269Z,21.86
2022-12-24T08:43:20.081Z,21.85
2022-12-24T08:45:49.199Z,21.87
2022-12-24T08:48:16.083Z,21.87
2022-12-24T08:50:42.880Z,21.89
2022-12-24T08:53:10.300Z,21.88
2022-12-24T08:55:37.397Z,21.89
2022-12-24T08:58:04.204Z,21.90
2022-12-24T09:00:30.838Z,21.90
2022-12-24T09:02:58.148Z,21.91
2022-12-24T09:05:25.993Z,21.91
2022-12-24T09:07:52.984Z,21.92
2022-12-24T09:10:19.632Z,21.92
2022-12-24T09:12:46.378Z,21.91
2022-12-24T09:15:14.295Z,21.93
2022-12-24T09:17:41.592Z,21.92
2022-12-24T09:20:09.034Z,21.93
2022-12-24T09:22:39.299Z,21.92
2022-12-24T09:25:07.225Z,21.92
2022-12-24T09:27:34.124Z,21.93
2022-12-24T09:30:00.657Z,21.93
2022-12-24T09:32:27.184Z,21.93
2022-12-24T09:34:53.994Z,21.92
2022-12-24T09:37:20.763Z,21.92
2022-12-24T09:39:47.218Z,21.91
2022-12-24T09:42:16.735Z,21.91
2022-12-24T09:44:48.679Z,21.91
2022-12-24T09:47:36.272Z,21.93
2022-12-24T09:50:09.385Z,21.92
2022-12-24T09:52:40.906Z,21.93
2022-12-24T09:55:13.593Z,21.92
2022-12-24T09:57:42.020Z,21.94
2022-12-24T10:00:22.983Z,21.92
2022-12-24T10:02:50.011Z,21.94
2022-12-24T10:05:18.812Z,21.95
2022-12-24T10:08:08.683Z,21.95
2022-12-24T10:10:35.113Z,21.97
2022-12-24T10:13:20.256Z,21.98
2022-12-24T10:16:08.662Z,21.98
2022-12-24T10:19:10.379Z,21.97
2022-12-24T10:21:39.783Z,21.98
2022-12-24T10:24:25.924Z,21.97
2022-12-24T10:27:02.643Z,21.98
2022-12-24T10:29:32.262Z,21.98
2022-12-24T10:32:07.698Z,21.99
2022-12-24T10:34:41.577Z,21.99
2022-12-24T10:37:16.210Z,21.99
2022-12-24T10:39:43.177Z,21.99
2022-12-24T10:42:12.285Z,21.99
2022-12-24T10:44:38.771Z,21.99
2022-12-24T10:47:08.433Z,22.00
2022-12-24T10:49:46.673Z,21.98
2022-12-24T10:52:21.536Z,21.98
2022-12-24T10:55:28.298Z,21.98
2022-12-24T10:58:02.491Z,21.98
2022-12-24T11:00:35.575Z,21.98
2022-12-24T11:03:22.404Z,21.98
2022-12-24T11:08:35.108Z,21.97
2022-12-24T11:11:05.471Z,21.96
2022-12-24T11:16:10.552Z,21.95
2022-12-24T11:18:50.760Z,21.95
2022-12-24T11:21:24.856Z,21.96
2022-12-24T11:24:28.129Z,21.95
2022-12-24T11:26:55.005Z,21.95
2022-12-24T11:29:24.057Z,21.97
2022-12-24T11:31:52.681Z,21.95
2022-12-24T11:34:30.619Z,21.94
2022-12-24T11:37:17.161Z,21.95
2022-12-24T11:39:48.805Z,21.97
2022-12-24T11:42:44.595Z,21.95
2022-12-24T11:45:24.664Z,21.97
2022-12-24T11:47:52.178Z,21.97
2022-12-24T11:50:21.689Z,21.97
2022-12-24T11:53:00.491Z,21.97
2022-12-24T11:55:42.127Z,21.98
2022-12-24T11:58:36.211Z,22.00
2022-12-24T12:01:25.974Z,21.99
2022-12-24T12:04:00.107Z,21.98
2022-12-24T12:06:40.377Z,21.99
2022-12-24T12:09:12.984Z,21.99
2022-12-24T12:11:41.638Z,22.00
2022-12-24T12:14:18.824Z,21.99
2022-12-24T12:17:16.339Z,22.01
2022-12-24T12:19:49.033Z,22.00
2022-12-24T12:22:30.158Z,22.00
2022-12-24T12:24:59.534Z,22.00
2022-12-24T12:27:35.706Z,22.02
2022-12-24T12:30:05.838Z,22.00
2022-12-24T12:32:43.338Z,22.00
2022-12-24T12:35:18.772Z,22.00
2022-12-24T12:37:52.295Z,22.02
2022-12-24T12:40:20.628Z,22.00
2022-12-24T12:43:09.601Z,22.01
2022-12-24T12:45:55.031Z,22.00
2022-12-24T12:48:44.569Z,21.99
2022-12-24T12:51:41.612Z,21.98
2022-12-24T12:54:26.938Z,21.98
2022-12-24T12:56:56.390Z,21.97
2022-12-24T12:59:44.700Z,21.97
2022-12-24T13:02:37.276Z,21.97
2022-12-24T13:05:22.610Z,21.98
2022-12-24T13:08:03.654Z,21.97
2022-12-24T13:10:48.321Z,21.98
2022-12-24T13:13:30.047Z,21.97
2022-12-24T13:16:23.881Z,21.97
2022-12-24T13:19:17.606Z,21.98
2022-12-24T13:21:46.283Z,21.99
2022-12-24T13:24:21.297Z,21.97
2022-12-24T13:27:15.925Z,21.99
2022-12-24T13:29:52.496Z,22.01
2022-12-24T13:32:22.019Z,22.00
2022-12-24T13:34:52.667Z,22.00
2022-12-24T13:37:31.423Z,22.00
2022-12-24T13:40:10.052Z,22.00
2022-12-24T13:42:58.503Z,22.00
2022-12-24T13:45:31.584Z,22.01
2022-12-24T13:48:12.945Z,22.00
2022-12-24T13:50:58.195Z,22.02
2022-12-24T13:53:45.383Z,22.00
2022-12-24T13:56:16.639Z,22.01
2022-12-24T13:58:46.707Z,22.00
2022-12-24T14:01:42.244Z,22.01
2022-12-24T14:04:21.494Z,21.99
2022-12-24T14:06:50.903Z,22.01
2022-12-24T14:09:21.785Z,22.01
2022-12-24T14:11:57.180Z,22.02
2022-12-24T14:14:38.127Z,22.02
2022-12-24T14:17:23.244Z,22.02
2022-12-24T14:20:00.862Z,22.01
2022-12-24T14:22:34.373Z,22.03
2022-12-24T14:25:22.420Z,22.01
2022-12-24T14:27:58.566Z,22.04
2022-12-24T14:30:28.673Z,22.02
2022-12-24T14:32:55.812Z,22.01
2022-12-24T14:35:27.477Z,22.02
2022-12-24T14:38:14.169Z,22.01
2022-12-24T14:40:56.031Z,22.00
2022-12-24T14:43:46.463Z,22.02
2022-12-24T14:46:21.464Z,22.03
2022-12-24T14:48:55.388Z,22.02
2022-12-24T14:51:24.658Z,22.03
2022-12-24T14:53:51.065Z,22.02
2022-12-24T14:56:20.272Z,22.00
2022-12-24T14:58:47.517Z,22.04
2022-12-24T15:01:27.557Z,22.05
2022-12-24T15:04:16.589Z,22.03
2022-12-24T15:06:57.660Z,22.03
2022-12-24T15:09:26.959Z,22.04
2022-12-24T15:12:00.094Z,22.04
2022-12-24T15:14:30.240Z,22.05
2022-12-24T15:17:04.012Z,22.06
2022-12-24T15:19:37.088Z,22.06
2022-12-24T15:22:08.059Z,22.05
2022-12-24T15:24:36.884Z,22.05
2022-12-24T15:27:15.061Z,22.06
2022-12-24T15:29:46.853Z,22.06
2022-12-24T15:32:16.346Z,22.06
2022-12-24T15:34:46.487Z,22.07
2022-12-24T15:37:22.887Z,22.06
2022-12-24T15:39:56.703Z,22.07
2022-12-24T15:42:24.738Z,22.08
2022-12-24T15:44:54.093Z,22.06
2022-12-24T15:47:27.732Z,22.06
2022-12-24T15:49:54.454Z,22.08
2022-12-24T15:52:26.579Z,22.08
2022-12-24T15:54:57.724Z,22.09
2022-12-24T15:57:30.351Z,22.08
2022-12-24T15:59:59.530Z,22.07
2022-12-24T16:02:39.822Z,22.10
2022-12-24T16:05:21.817Z,22.07
2022-12-24T16:08:09.381Z,22.08
2022-12-24T16:10:45.345Z,22.06
2022-12-24T16:13:28.605Z,22.04
2022-12-24T16:16:06.635Z,22.03
2022-12-24T16:18:36.791Z,22.02
2022-12-24T16:21:05.256Z,21.98
2022-12-24T16:23:37.591Z,21.94
2022-12-24T16:26:04.191Z,21.93
2022-12-24T16:28:31.652Z,21.90
2022-12-24T16:30:58.420Z,21.90
2022-12-24T16:33:25.035Z,21.90
2022-12-24T16:35:51.845Z,21.89
2022-12-24T16:38:18.362Z,21.88
2022-12-24T16:40:44.848Z,21.88
2022-12-24T16:43:46.458Z,21.89
2022-12-24T16:46:13.429Z,21.89
2022-12-24T16:48:40.380Z,21.91
2022-12-24T16:51:06.927Z,21.92
2022-12-24T16:53:33.368Z,21.93
2022-12-24T16:55:59.952Z,21.93
2022-12-24T16:58:26.504Z,21.94
2022-12-24T17:00:53.482Z,21.95
2022-12-24T17:03:20.043Z,21.97
2022-12-24T17:08:13.701Z,21.97
2022-12-24T17:10:40.702Z,21.99
2022-12-24T17:13:07.204Z,21.98
2022-12-24T17:15:33.980Z,21.99
2022-12-24T17:18:00.449Z,22.00
2022-12-24T17:20:26.919Z,22.00
2022-12-24T17:22:53.441Z,22.01
2022-12-24T17:25:20.001Z,22.01
2022-12-24T17:27:46.485Z,22.02
2022-12-24T17:30:13.143Z,22.02
2022-12-24T17:32:39.657Z,22.02
2022-12-24T17:35:07.514Z,22.04
2022-12-24T17:37:34.040Z,22.04
2022-12-24T17:40:00.535Z,22.03
2022-12-24T17:42:27.040Z,22.05
2022-12-24T17:44:53.500Z,22.04
2022-12-24T17:47:19.951Z,22.06
2022-12-24T17:49:46.445Z,22.06
2022-12-24T17:52:12.986Z,22.06
2022-12-24T17:54:39.513Z,22.06
2022-12-24T17:57:05.979Z,22.07
2022-12-24T17:59:32.413Z,22.04
2022-12-24T18:01:59.015Z,22.05
2022-12-24T18:04:25.660Z,22.06
2022-12-24T18:06:57.774Z,22.06
2022-12-24T18:09:28.382Z,22.05
2022-12-24T18:11:54.926Z,22.05
2022-12-24T18:14:21.465Z,22.06
2022-12-24T18:16:49.265Z,22.05
2022-12-24T18:19:15.826Z,22.06
2022-12-24T18:21:42.302Z,22.06
2022-12-24T18:24:10.255Z,22.06
2022-12-24T18:26:36.820Z,22.04
2022-12-24T18:29:04.768Z,22.05
2022-12-24T18:31:33.415Z,22.04
2022-12-24T18:34:01.229Z,22.06
2022-12-24T18:36:27.781Z,22.05
2022-12-24T18:38:54.264Z,22.05
2022-12-24T18:41:26.598Z,22.05
2022-12-24T18:43:54.248Z,22.06
2022-12-24T18:46:23.717Z,22.06
2022-12-24T18:48:50.921Z,22.05
2022-12-24T18:51:19.950Z,22.06
2022-12-24T18:53:46.598Z,22.06
2022-12-24T18:56:15.784Z,22.06
2022-12-24T18:58:43.171Z,22.06
2022-12-24T19:01:11.332Z,22.08
2022-12-24T19:03:37.960Z,22.08
2022-12-24T19:06:04.797Z,22.07
2022-12-24T19:08:57.111Z,22.08
2022-12-24T19:11:18.070Z,22.08
2022-12-24T19:13:48.594Z,22.08
2022-12-24T19:16:16.220Z,22.08
2022-12-24T19:18:42.981Z,22.09
2022-12-24T19:21:12.692Z,22.08
2022-12-24T19:23:39.264Z,22.08
2022-12-24T19:26:06.076Z,22.08
2022-12-24T19:28:32.942Z,22.06
2022-12-24T19:31:08.352Z,22.07
2022-12-24T19:33:43.867Z,22.06
2022-12-24T19:36:14.541Z,22.06
2022-12-24T19:38:41.100Z,22.06
2022-12-24T19:41:22.134Z,22.06
2022-12-24T19:43:52.730Z,22.05
2022-12-24T19:46:22.049Z,22.06
2022-12-24T19:48:54.117Z,22.05
2022-12-24T19:51:21.420Z,22.05
2022-12-24T19:53:48.269Z,22.03
2022-12-24T19:56:16.700Z,22.05
2022-12-24T19:58:44.315Z,22.06
2022-12-24T20:01:16.680Z,22.05
2022-12-24T20:03:44.952Z,22.04
2022-12-24T20:06:13.059Z,22.07
2022-12-24T20:08:40.096Z,22.06
2022-12-24T20:11:09.711Z,22.04
2022-12-24T20:13:37.591Z,22.06
2022-12-24T20:16:06.780Z,22.06
2022-12-24T20:18:33.936Z,22.07
2022-12-24T20:21:06.667Z,22.07
2022-12-24T20:23:33.279Z,22.07
2022-12-24T20:26:01.730Z,22.07
2022-12-24T20:28:29.947Z,22.08
2022-12-24T20:30:56.670Z,22.09
2022-12-24T20:33:23.152Z,22.10
2022-12-24T20:35:49.951Z,22.08
2022-12-24T20:38:16.787Z,22.08
2022-12-24T20:40:44.807Z,22.08
2022-12-24T20:43:12.275Z,22.08
2022-12-24T20:45:38.943Z,22.08
2022-12-24T20:48:06.198Z,22.09
2022-12-24T20:50:32.704Z,22.09
2022-12-24T20:52:59.218Z,22.10
2022-12-24T20:55:25.712Z,22.08
2022-12-24T20:57:52.318Z,22.08
2022-12-24T21:00:19.886Z,22.08
2022-12-24T21:02:46.629Z,22.08
2022-12-24T21:05:13.431Z,22.08
2022-12-24T21:07:40.640Z,22.08
2022-12-24T21:10:07.765Z,22.07
2022-12-24T21:12:49.818Z,22.06
2022-12-24T21:15:17.641Z,22.07
2022-12-24T21:17:44.162Z,22.08
2022-12-24T21:20:11.793Z,22.08
2022-12-24T21:22:39.209Z,22.08
2022-12-24T21:25:07.062Z,22.07
2022-12-24T21:27:33.625Z,22.08
2022-12-24T21:30:00.205Z,22.06
2022-12-24T21:32:26.873Z,22.08
2022-12-24T21:34:53.407Z,22.08
2022-12-24T21:37:20.223Z,22.08
2022-12-24T21:39:47.997Z,22.07
2022-12-24T21:42:14.782Z,22.08
2022-12-24T21:44:41.330Z,22.09
2022-12-24T21:47:07.941Z,22.09
2022-12-24T21:49:53.405Z,22.09
2022-12-24T21:52:19.887Z,22.09
2022-12-24T21:54:46.429Z,22.09
2022-12-24T21:57:31.470Z,22.08
2022-12-24T22:00:18.863Z,22.08
2022-12-24T22:02:45.794Z,22.09
2022-12-24T22:05:12.420Z,22.08
2022-12-24T22:07:57.689Z,22.07
2022-12-24T22:10:43.172Z,22.08
2022-12-24T22:13:09.722Z,22.06
2022-12-24T22:15:41.893Z,22.07
2022-12-24T22:18:08.318Z,22.07
2022-12-24T22:20:36.370Z,22.06
2022-12-24T22:23:02.953Z,22.07
2022-12-24T22:25:30.598Z,22.06
2022-12-24T22:27:57.639Z,22.07
2022-12-24T22:30:24.173Z,22.06
2022-12-24T22:32:50.753Z,22.04
2022-12-24T22:35:17.282Z,22.03
2022-12-24T22:37:44.297Z,22.00
2022-12-24T22:40:11.778Z,21.97
2022-12-24T22:42:38.297Z,21.92
2022-12-24T22:45:05.860Z,21.90
2022-12-24T22:47:32.365Z,21.86
2022-12-24T22:49:58.860Z,21.84
2022-12-24T22:52:25.527Z,21.78
2022-12-24T22:54:52.045Z,21.75
2022-12-24T22:57:18.625Z,21.71
2022-12-24T22:59:45.089Z,21.66
2022-12-24T23:02:13.365Z,21.61
2022-12-24T23:04:40.872Z,21.55
2022-12-24T23:07:09.620Z,21.52
2022-12-24T23:09:36.484Z,21.49
2022-12-24T23:12:03.437Z,21.45
2022-12-24T23:14:48.360Z,21.39
2022-12-24T23:17:15.025Z,21.36
2022-12-24T23:19:41.697Z,21.31
2022-12-24T23:22:08.253Z,21.27
2022-12-24T23:24:35.176Z,21.22
2022-12-24T23:27:01.802Z,21.19
2022-12-24T23:29:29.585Z,21.16
2022-12-24T23:31:56.103Z,21.10
2022-12-24T23:34:22.716Z,21.08
2022-12-24T23:36:49.144Z,21.06
2022-12-24T23:39:15.914Z,21.02
2022-12-24T23:41:42.493Z,20.97
2022-12-24T23:44:08.970Z,20.94
2022-12-24T23:46:35.495Z,20.91
2022-12-24T23:49:01.958Z,20.90
2022-12-24T23:51:28.865Z,20.87
2022-12-24T23:53:56.598Z,20.84
2022-12-24T23:56:25.003Z,20.82
2022-12-24T23:58:51.907Z,20.79
